This is the latest recevied weather packets stored in our database for station/object JH4GLG-13. If no packets are shown the sender has not sent any weather packets the latest 10 day(s).
| Time | Temp. | Humidity | Pressure | Rain* | Wind** | Luminosity | Snow |
|---|---|---|---|---|---|---|---|
| 1777398919 | 18.89° C | 73% | 1012.8 hPa | 0 mm | - | - | - |
| 1777398018 | 18.89° C | 74% | 1012.8 hPa | 0 mm | - | - | - |
| 1777397119 | 18.89° C | 72% | 1012.8 hPa | 0 mm | - | - | - |
| 1777396217 | 18.89° C | 70% | 1012.7 hPa | 0 mm | - | - | - |
| 1777395318 | 18.89° C | 71% | 1012.9 hPa | 0 mm | - | - | - |
| 1777394417 | 19.44° C | 71% | 1012.9 hPa | 0 mm | - | - | - |
| 1777393518 | 18.89° C | 69% | 1012.8 hPa | 0 mm | - | - | - |
| 1777392618 | 18.89° C | 72% | 1013.1 hPa | 0 mm | - | - | - |
| 1777391778 | 18.89° C | 72% | 1013.1 hPa | 0 mm | - | - | - |
| 1777391718 | 18.89° C | 72% | 1013.1 hPa | 0 mm | - | - | - |
| 1777390817 | 18.89° C | 72% | 1013.3 hPa | 0 mm | - | - | - |
| 1777389918 | 18.89° C | 69% | 1013.3 hPa | 0 mm | - | - | - |
| 1777389017 | 19.44° C | 69% | 1013.3 hPa | 0 mm | - | - | - |
| 1777388118 | 19.44° C | 65% | 1013.3 hPa | 0 mm | - | - | - |
| 1777387216 | 19.44° C | 66% | 1013.4 hPa | 0 mm | - | - | - |
| 1777386317 | 20° C | 68% | 1013.3 hPa | 0 mm | - | - | - |
| 1777385416 | 20° C | 66% | 1013.3 hPa | 0 mm | - | - | - |
| 1777384517 | 20° C | 64% | 1013.3 hPa | 0 mm | - | - | - |
| 1777383616 | 20° C | 63% | 1013.2 hPa | 0 mm | - | - | - |
| 1777382717 | 20° C | 60% | 1013.1 hPa | 0 mm | - | - | - |
| 1777381816 | 20° C | 58% | 1013 hPa | 0 mm | - | - | - |
| 1777380960 | 20.56° C | 57% | 1012.9 hPa | 0 mm | - | - | - |
| 1777380917 | 20.56° C | 57% | 1012.9 hPa | 0 mm | - | - | - |
| 1777380016 | 20.56° C | 58% | 1012.9 hPa | 0 mm | - | - | - |
| 1777379116 | 20.56° C | 56% | 1012.9 hPa | 0 mm | - | - | - |
* Rain latest hour (hover to see other rain measurements)
** Current wind speed in m/s (hover to see current wind gust speed)